Time;durP1;ratioP1;P1;durP2;ratioP2;P2;SDS_P1;SDS_P2;PMS_P1;PMS_P2;Temp;Humidity;BMP_temperature;BMP_pressure;BME280_temperature;BME280_humidity;BME280_pressure;Samples;Min_cycle;Max_cycle;Signal;HPM_P1;HPM_P2
2021/05/06 00:33:02;;;;;;;3.35;1.63;;;7.60;99.70;;;;;;5045037;28;20032;-79
2021/05/06 00:35:29;;;;;;;3.67;1.83;;;7.50;99.80;;;;;;5026688;28;20029;-76
2021/05/06 00:38:04;;;;;;;3.20;1.90;;;7.50;99.80;;;;;;5041813;28;20022;-77
2021/05/06 00:40:49;;;;;;;7.82;1.98;;;7.50;99.90;;;;;;5027032;28;20040;-78
2021/05/06 01:07:18;;;;;;;7.57;2.08;;;7.40;99.90;;;;;;5041204;28;20067;-78
2021/05/06 01:09:37;;;;;;;9.13;4.25;;;7.40;99.90;;;;;;5040374;28;20045;-79
2021/05/06 01:12:04;;;;;;;5.85;2.60;;;7.40;99.90;;;;;;5024346;28;20021;-77
2021/05/06 01:14:31;;;;;;;6.28;2.75;;;7.40;99.90;;;;;;5023151;28;20029;-77
2021/05/06 01:16:57;;;;;;;8.70;2.13;;;;;;;;;;5037915;28;20021;-77
2021/05/06 01:19:23;;;;;;;7.07;1.95;;;7.50;99.90;;;;;;5039819;28;20025;-76
2021/05/06 01:21:48;;;;;;;4.97;2.20;;;7.50;99.90;;;;;;5041078;28;20059;-77
2021/05/06 01:24:14;;;;;;;4.47;2.05;;;7.60;99.90;;;;;;5023933;28;21139;-78
2021/05/06 01:26:44;;;;;;;4.38;2.28;;;7.60;99.90;;;;;;5032529;28;20041;-77
2021/05/06 01:29:15;;;;;;;7.03;1.90;;;7.60;99.90;;;;;;5026928;28;20041;-76
2021/05/06 01:31:48;;;;;;;5.15;1.92;;;7.60;99.90;;;;;;5043216;28;20724;-76
2021/05/06 01:34:18;;;;;;;6.32;2.20;;;7.60;99.90;;;;;;5046905;28;20033;-79
2021/05/06 01:36:49;;;;;;;5.97;1.83;;;7.70;99.90;;;;;;5042706;28;20539;-78
2021/05/06 02:00:24;;;;;;;4.72;2.30;;;7.70;99.90;;;;;;5040199;28;20033;-76
2021/05/06 02:02:50;;;;;;;5.10;1.85;;;7.70;99.90;;;;;;5024184;28;20829;-76
2021/05/06 02:05:16;;;;;;;5.70;2.00;;;7.70;99.90;;;;;;5024083;28;20105;-80
2021/05/06 02:07:47;;;;;;;4.50;1.63;;;;;;;;;;5023903;28;20479;-80
2021/05/06 02:10:16;;;;;;;3.88;1.55;;;7.70;99.60;;;;;;5027165;28;20367;-78
2021/05/06 02:12:42;;;;;;;4.57;1.80;;;7.80;98.60;;;;;;5038328;28;20030;-76
2021/05/06 02:15:13;;;;;;;4.05;1.75;;;7.80;98.30;;;;;;5023341;28;20052;-77
2021/05/06 02:17:40;;;;;;;;;;;7.80;98.50;;;;;;5025208;28;20025;-77
2021/05/06 02:20:07;;;;;;;3.15;1.50;;;8.00;98.10;;;;;;5026169;28;19920;-76
2021/05/06 02:22:33;;;;;;;3.60;1.60;;;8.10;97.30;;;;;;5040912;28;20472;-76
2021/05/06 02:24:59;;;;;;;3.05;1.50;;;;;;;;;;5036653;28;20028;-78
2021/05/06 02:27:26;;;;;;;6.47;1.50;;;;;;;;;;5027131;28;20025;-78
2021/05/06 02:29:52;;;;;;;4.63;1.80;;;;;;;;;;5042696;28;20336;-78
2021/05/06 02:32:18;;;;;;;6.05;1.60;;;;;;;;;;5024976;28;20025;-78
2021/05/06 02:34:45;;;;;;;5.82;1.75;;;8.00;97.50;;;;;;5039453;28;20045;-77
2021/05/06 02:37:12;;;;;;;6.97;2.30;;;8.00;98.00;;;;;;5043624;28;20025;-77
2021/05/06 02:39:37;;;;;;;4.45;1.70;;;8.00;98.00;;;;;;5027066;28;20017;-78
2021/05/06 02:42:03;;;;;;;4.40;1.90;;;8.00;98.30;;;;;;5028825;28;20025;-79
2021/05/06 02:44:29;;;;;;;5.55;1.95;;;7.90;98.30;;;;;;5040887;28;20069;-77
2021/05/06 02:46:56;;;;;;;4.13;1.67;;;;;;;;;;5026826;28;20168;-76
2021/05/06 02:49:23;;;;;;;4.63;1.77;;;;;;;;;;5044810;28;20029;-77
2021/05/06 02:51:55;;;;;;;5.30;1.75;;;;;;;;;;5026771;28;20033;-76
2021/05/06 02:54:21;;;;;;;6.18;1.80;;;7.90;99.90;;;;;;5027568;28;20083;-78
2021/05/06 03:04:46;;;;;;;4.22;1.85;;;;;;;;;;5047028;28;20027;-80
2021/05/06 03:07:14;;;;;;;4.97;1.80;;;7.90;99.90;;;;;;5029789;28;20025;-76
2021/05/06 03:22:59;;;;;;;8.00;1.73;;;8.00;99.90;;;;;;5040406;28;20538;-78
2021/05/06 03:25:27;;;;;;;6.15;2.50;;;8.00;99.90;;;;;;5042459;28;23039;-75
2021/05/06 03:28:30;;;;;;;6.57;1.95;;;7.80;99.90;;;;;;5044088;28;20027;-76
2021/05/06 03:44:32;;;;;;;8.10;2.17;;;7.50;99.90;;;;;;5034844;28;20040;-81
2021/05/06 04:12:19;;;;;;;9.32;2.70;;;7.40;99.90;;;;;;5040698;28;20449;-78
2021/05/06 04:25:35;;;;;;;6.10;2.65;;;7.40;99.90;;;;;;5045064;28;20024;-76
2021/05/06 04:36:13;;;;;;;4.15;2.30;;;7.20;99.90;;;;;;5050754;28;20037;-78
2021/05/06 04:38:39;;;;;;;6.18;2.88;;;7.20;99.90;;;;;;5028825;28;20032;-77
2021/05/06 04:41:17;;;;;;;6.30;2.35;;;7.20;99.90;;;;;;5035196;28;20500;-76
2021/05/06 04:54:29;;;;;;;6.95;3.00;;;7.10;99.90;;;;;;5046346;28;20071;-77
2021/05/06 04:57:11;;;;;;;8.88;3.08;;;7.10;99.90;;;;;;5046992;28;20218;-76
2021/05/06 05:04:54;;;;;;;10.68;3.20;;;7.00;99.90;;;;;;5052297;28;20110;-79
2021/05/06 05:18:07;;;;;;;9.40;3.00;;;7.20;99.90;;;;;;5014184;28;20052;-77
2021/05/06 05:23:26;;;;;;;7.80;2.80;;;7.20;99.90;;;;;;5028874;28;20020;-77
2021/05/06 05:26:04;;;;;;;8.35;3.25;;;7.20;99.90;;;;;;5045265;28;20475;-78
2021/05/06 05:28:29;;;;;;;7.47;3.25;;;7.30;99.90;;;;;;5036423;28;20044;-76
2021/05/06 05:30:58;;;;;;;7.93;2.90;;;7.20;99.90;;;;;;5030955;28;20391;-76
2021/05/06 05:33:25;;;;;;;9.45;3.72;;;7.10;99.90;;;;;;5042765;28;20102;-77
2021/05/06 05:39:08;;;;;;;6.25;3.20;;;7.10;99.90;;;;;;4967768;28;20026;-79
2021/05/06 05:55:06;;;;;;;5.65;2.70;;;7.20;99.90;;;;;;5000988;28;20509;-77
2021/05/06 05:57:32;;;;;;;8.30;2.88;;;7.20;99.90;;;;;;5040020;28;20087;-76
2021/05/06 05:59:57;;;;;;;5.03;2.30;;;7.20;99.90;;;;;;5027332;28;20032;-78
2021/05/06 06:02:23;;;;;;;7.43;2.90;;;7.30;99.90;;;;;;5020779;28;20207;-75
2021/05/06 06:04:48;;;;;;;6.35;2.85;;;7.30;99.90;;;;;;5017841;28;20164;-75
2021/05/06 06:07:14;;;;;;;9.10;2.90;;;7.20;99.90;;;;;;5041402;28;20028;-79
2021/05/06 06:09:40;;;;;;;5.57;2.65;;;7.20;99.90;;;;;;5051557;28;20061;-80
2021/05/06 06:12:06;;;;;;;5.97;3.08;;;7.30;99.90;;;;;;5028718;28;20029;-77
2021/05/06 06:14:43;;;;;;;6.32;3.17;;;7.30;99.90;;;;;;5046276;28;20060;-76
2021/05/06 06:17:10;;;;;;;8.57;3.30;;;7.30;99.90;;;;;;5046500;28;20051;-78
2021/05/06 06:19:37;;;;;;;8.20;3.08;;;7.40;99.90;;;;;;5029517;28;20029;-77
2021/05/06 06:22:09;;;;;;;6.55;2.90;;;7.40;99.90;;;;;;5048878;28;20025;-76
2021/05/06 06:24:35;;;;;;;7.15;3.22;;;7.40;99.90;;;;;;5035128;28;20029;-76
2021/05/06 06:27:01;;;;;;;7.97;3.45;;;7.40;99.90;;;;;;5031432;28;20032;-80
2021/05/06 06:29:30;;;;;;;9.20;3.70;;;7.50;99.90;;;;;;5029898;28;20476;-77
2021/05/06 06:31:56;;;;;;;7.28;2.92;;;7.50;99.90;;;;;;5030808;28;20403;-78
2021/05/06 06:34:22;;;;;;;6.15;2.70;;;7.60;99.90;;;;;;5027539;28;20040;-76
2021/05/06 06:36:50;;;;;;;8.57;3.45;;;7.60;99.90;;;;;;5029931;28;20029;-75
2021/05/06 06:39:16;;;;;;;6.88;2.90;;;7.60;99.90;;;;;;5040383;28;20025;-76
2021/05/06 06:41:47;;;;;;;8.07;3.08;;;7.60;99.90;;;;;;5031744;28;20136;-74
2021/05/06 06:44:14;;;;;;;5.63;3.00;;;7.50;99.90;;;;;;5047113;28;20448;-74
2021/05/06 06:46:41;;;;;;;4.63;2.72;;;7.50;99.90;;;;;;5045207;28;20462;-75
2021/05/06 06:49:06;;;;;;;27.00;11.85;;;7.50;99.90;;;;;;5045318;28;20021;-75
2021/05/06 06:51:32;;;;;;;6.97;3.20;;;7.60;99.90;;;;;;5047700;28;20065;-78
2021/05/06 06:53:58;;;;;;;14.63;4.10;;;7.60;99.90;;;;;;5023752;28;20119;-76
2021/05/06 06:56:24;;;;;;;7.22;3.47;;;7.60;99.90;;;;;;5045866;28;20025;-74
2021/05/06 06:58:52;;;;;;;8.13;3.97;;;7.70;99.90;;;;;;5026197;28;20037;-78
2021/05/06 07:01:18;;;;;;;5.75;3.58;;;;;;;;;;5042746;28;20372;-76
2021/05/06 07:03:44;;;;;;;7.45;3.08;;;7.80;99.90;;;;;;5026407;28;20043;-74
2021/05/06 07:06:10;;;;;;;7.78;3.70;;;;;;;;;;5049065;28;20407;-78
2021/05/06 07:08:42;;;;;;;7.93;4.00;;;;;;;;;;5044179;28;20056;-76
2021/05/06 07:11:08;;;;;;;7.25;3.70;;;7.70;99.90;;;;;;5043199;28;20029;-76
2021/05/06 07:13:34;;;;;;;9.18;4.10;;;7.80;99.90;;;;;;5026035;28;20466;-74
2021/05/06 07:16:05;;;;;;;8.88;3.70;;;7.90;99.90;;;;;;5025968;28;20039;-76
2021/05/06 07:18:32;;;;;;;11.90;4.22;;;;;;;;;;5022667;28;20045;-77
2021/05/06 07:21:00;;;;;;;9.90;4.40;;;8.00;99.90;;;;;;5024323;28;20108;-75
2021/05/06 07:23:26;;;;;;;10.38;4.35;;;8.00;99.90;;;;;;5030468;28;20036;-77
2021/05/06 07:25:54;;;;;;;6.07;4.05;;;8.10;99.90;;;;;;5042883;28;20037;-78
2021/05/06 07:28:38;;;;;;;8.13;3.75;;;8.10;99.90;;;;;;5034295;28;20044;-77
2021/05/06 07:31:05;;;;;;;9.70;4.00;;;8.20;99.90;;;;;;5041916;28;20033;-78
2021/05/06 07:33:31;;;;;;;6.72;3.95;;;;;;;;;;5014129;28;20037;-78
2021/05/06 07:35:58;;;;;;;6.40;4.20;;;8.20;99.90;;;;;;5022609;28;22431;-77
2021/05/06 07:38:25;;;;;;;9.73;4.10;;;;;;;;;;5023741;28;20025;-77
2021/05/06 07:40:51;;;;;;;9.05;4.30;;;8.10;99.90;;;;;;5039835;28;20033;-78
2021/05/06 07:43:17;;;;;;;8.98;3.63;;;9.00;99.90;;;;;;5040202;28;20025;-77
2021/05/06 07:45:43;;;;;;;8.18;4.25;;;8.30;99.90;;;;;;5022981;28;20048;-77
2021/05/06 07:48:09;;;;;;;9.55;4.35;;;;;;;;;;5025112;28;20037;-75
2021/05/06 07:50:35;;;;;;;7.45;4.18;;;;;;;;;;5028281;28;20029;-78
2021/05/06 07:53:14;;;;;;;8.13;4.55;;;8.50;99.90;;;;;;5023976;28;20029;-80
2021/05/06 07:55:40;;;;;;;10.10;4.65;;;11.30;99.90;;;;;;5031843;28;20103;-78
2021/05/06 07:58:06;;;;;;;7.72;4.25;;;8.50;99.90;;;;;;5022170;28;20384;-76
2021/05/06 08:00:34;;;;;;;8.82;4.47;;;8.50;99.90;;;;;;5012349;28;20028;-78
2021/05/06 08:03:00;;;;;;;6.88;4.20;;;8.60;99.90;;;;;;5011491;28;20150;-75
2021/05/06 08:05:26;;;;;;;7.93;4.43;;;;;;;;;;5028510;28;21444;-76
2021/05/06 08:07:54;;;;;;;6.75;4.80;;;8.80;99.90;;;;;;5028737;28;20057;-76
2021/05/06 08:10:23;;;;;;;8.95;4.05;;;;;;;;;;5013039;28;20075;-78
2021/05/06 08:12:48;;;;;;;10.45;4.20;;;9.00;99.90;;;;;;5029349;28;20439;-75
2021/05/06 08:15:14;;;;;;;10.52;5.43;;;;;;;;;;5025102;28;20065;-78
2021/05/06 08:17:41;;;;;;;9.10;5.00;;;9.00;99.90;;;;;;5030952;28;20511;-78
2021/05/06 08:20:09;;;;;;;6.78;4.03;;;8.90;99.90;;;;;;5030110;28;20021;-77
2021/05/06 08:22:36;;;;;;;8.93;4.43;;;8.90;99.90;;;;;;5004220;28;20507;-75
2021/05/06 08:25:08;;;;;;;10.52;5.40;;;8.90;99.90;;;;;;5032092;28;20035;-76
2021/05/06 08:27:35;;;;;;;9.95;5.07;;;8.80;99.90;;;;;;5019444;28;20037;-77
2021/05/06 08:30:01;;;;;;;20.30;10.90;;;8.80;99.90;;;;;;5014925;28;20043;-78
2021/05/06 08:32:27;;;;;;;10.88;6.05;;;8.90;99.90;;;;;;5014478;28;20059;-76
2021/05/06 08:34:53;;;;;;;12.18;4.90;;;11.50;99.90;;;;;;5030148;28;20045;-77
2021/05/06 08:37:19;;;;;;;7.35;4.00;;;;;;;;;;5028696;28;20387;-79
2021/05/06 08:39:45;;;;;;;6.32;4.70;;;9.20;99.90;;;;;;5015621;28;20044;-78
2021/05/06 08:42:12;;;;;;;7.63;4.25;;;9.40;99.90;;;;;;5024651;28;20037;-76
2021/05/06 08:44:39;;;;;;;5.78;3.20;;;9.30;99.90;;;;;;5017590;28;20353;-76
2021/05/06 08:47:07;;;;;;;7.82;3.65;;;9.70;99.90;;;;;;5033221;28;20142;-80
2021/05/06 08:49:35;;;;;;;6.40;3.30;;;9.80;99.90;;;;;;5028540;28;20036;-77
2021/05/06 08:52:09;;;;;;;6.60;3.67;;;9.80;99.90;;;;;;5016603;28;20040;-78
2021/05/06 08:54:36;;;;;;;5.13;3.40;;;9.90;99.90;;;;;;5017177;28;20400;-78
2021/05/06 08:57:02;;;;;;;6.65;3.10;;;10.60;99.90;;;;;;5011104;28;20273;-79
2021/05/06 08:59:28;;;;;;;5.95;3.20;;;10.20;99.90;;;;;;5034584;28;20037;-78
2021/05/06 09:01:55;;;;;;;6.82;3.28;;;10.30;99.70;;;;;;5033081;28;20024;-79
2021/05/06 09:04:21;;;;;;;7.60;3.90;;;10.40;99.80;;;;;;5039238;28;20033;-76
2021/05/06 09:07:02;;;;;;;5.60;3.15;;;10.20;99.90;;;;;;5017090;28;20771;-75
2021/05/06 09:09:30;;;;;;;7.30;3.22;;;10.30;99.70;;;;;;5014623;28;20033;-78
2021/05/06 09:12:01;;;;;;;8.27;3.15;;;10.30;99.90;;;;;;5019821;28;20509;-79
2021/05/06 09:14:42;;;;;;;6.93;3.30;;;10.20;99.90;;;;;;5035405;28;20037;-79
2021/05/06 09:17:34;;;;;;;11.38;5.95;;;10.10;99.90;;;;;;5033204;28;20029;-78
2021/05/06 09:20:08;;;;;;;7.22;3.50;;;10.00;99.90;;;;;;5028799;28;20048;-78
2021/05/06 09:22:35;;;;;;;6.38;2.85;;;10.20;99.90;;;;;;5024766;28;20451;-75
2021/05/06 09:25:36;;;;;;;4.78;2.72;;;10.10;99.90;;;;;;5003215;28;20033;-79
2021/05/06 09:28:05;;;;;;;;;;;10.10;99.80;;;;;;5026400;28;20051;-76
2021/05/06 09:30:55;;;;;;;5.68;3.00;;;10.00;99.90;;;;;;5027106;28;20147;-78
2021/05/06 09:33:38;;;;;;;4.70;3.23;;;10.00;99.90;;;;;;5012928;28;20032;-79
2021/05/06 09:36:13;;;;;;;8.02;3.30;;;9.90;99.90;;;;;;5011906;28;20983;-82
2021/05/06 09:38:45;;;;;;;8.30;3.42;;;9.60;99.90;;;;;;5031458;28;20029;-84
2021/05/06 09:41:13;;;;;;;7.28;3.58;;;9.60;99.90;;;;;;5028398;28;20072;-78
2021/05/06 09:43:41;;;;;;;8.40;4.03;;;9.60;99.90;;;;;;5030318;28;20752;-80
2021/05/06 09:46:43;;;;;;;9.10;4.07;;;9.60;99.90;;;;;;5041762;28;20423;-80
2021/05/06 09:49:18;;;;;;;8.80;3.72;;;9.50;99.90;;;;;;5032942;28;20147;-78
2021/05/06 09:51:49;;;;;;;8.38;3.78;;;9.60;99.90;;;;;;5025140;28;20049;-84
2021/05/06 09:54:18;;;;;;;11.38;4.35;;;9.50;99.90;;;;;;5041322;28;20025;-79
2021/05/06 09:56:44;;;;;;;7.97;3.65;;;9.60;99.90;;;;;;5041647;28;20037;-83
2021/05/06 09:59:11;;;;;;;6.47;3.20;;;9.60;99.90;;;;;;5037832;28;20129;-84
2021/05/06 10:01:42;;;;;;;6.15;3.25;;;10.00;99.90;;;;;;5036643;28;20663;-82
2021/05/06 10:04:13;;;;;;;10.45;3.78;;;10.20;99.90;;;;;;5017845;28;20033;-80
2021/05/06 10:06:39;;;;;;;7.65;3.63;;;10.20;99.90;;;;;;5014624;28;20053;-80
2021/05/06 10:09:05;;;;;;;8.18;3.70;;;10.40;99.90;;;;;;5031121;28;20056;-78
2021/05/06 10:11:31;;;;;;;12.40;2.92;;;10.50;99.90;;;;;;5015097;28;20044;-77
2021/05/06 10:13:59;;;;;;;9.55;3.92;;;13.80;99.90;;;;;;5027029;28;20056;-79
2021/05/06 10:16:26;;;;;;;9.45;3.17;;;12.70;99.90;;;;;;5018758;28;20017;-80
2021/05/06 10:18:52;;;;;;;8.80;3.13;;;10.50;99.90;;;;;;5017752;28;20084;-80
2021/05/06 10:21:22;;;;;;;9.63;3.85;;;10.50;99.90;;;;;;5008512;28;20487;-81
2021/05/06 10:23:50;;;;;;;8.20;3.92;;;10.50;99.90;;;;;;5026965;28;20061;-82
2021/05/06 10:26:18;;;;;;;7.32;3.97;;;10.50;99.90;;;;;;5013529;28;20033;-80
2021/05/06 10:28:45;;;;;;;8.98;4.40;;;13.70;99.90;;;;;;5010360;28;20075;-77
2021/05/06 10:31:11;;;;;;;11.65;4.88;;;10.50;99.90;;;;;;5007050;28;20039;-75
2021/05/06 10:33:40;;;;;;;6.65;3.72;;;10.50;99.90;;;;;;5005985;28;20033;-78
2021/05/06 10:36:07;;;;;;;10.95;4.47;;;11.70;99.90;;;;;;5025181;28;20779;-77
2021/05/06 10:38:34;;;;;;;13.13;4.38;;;10.50;99.90;;;;;;5011858;28;20029;-80
2021/05/06 10:41:22;;;;;;;8.93;3.63;;;10.40;99.90;;;;;;5018711;28;20044;-81
2021/05/06 10:43:52;;;;;;;9.02;3.78;;;11.60;99.90;;;;;;5030551;28;20087;-78
2021/05/06 10:46:18;;;;;;;9.02;3.72;;;10.80;99.90;;;;;;5015831;28;20060;-80
2021/05/06 10:49:03;;;;;;;9.40;4.30;;;12.10;99.90;;;;;;5015096;28;20053;-77
2021/05/06 10:51:49;;;;;;;6.35;3.03;;;12.00;99.90;;;;;;5012613;28;20124;-82
2021/05/06 10:54:33;;;;;;;9.77;3.30;;;10.50;99.90;;;;;;5034065;28;20037;-80
2021/05/06 10:57:24;;;;;;;6.60;3.13;;;10.50;99.90;;;;;;5018998;28;20025;-82
2021/05/06 10:59:50;;;;;;;9.70;3.25;;;10.50;99.90;;;;;;5037326;28;20032;-79
2021/05/06 11:02:46;;;;;;;7.22;3.55;;;8.20;99.90;;;;;;5030581;28;20030;-79
2021/05/06 11:05:14;;;;;;;7.38;3.00;;;10.20;99.90;;;;;;5022330;28;20369;-78
2021/05/06 11:07:41;;;;;;;9.23;3.47;;;10.00;99.90;;;;;;5039976;28;20112;-77
2021/05/06 11:10:08;;;;;;;7.07;3.80;;;9.80;99.90;;;;;;5040512;28;20104;-80
2021/05/06 11:12:40;;;;;;;8.05;3.60;;;11.60;99.90;;;;;;5018153;28;20044;-78
2021/05/06 11:15:06;;;;;;;8.73;3.33;;;9.70;99.90;;;;;;5021987;28;20040;-78
2021/05/06 11:17:32;;;;;;;10.95;3.60;;;;;;;;;;5021249;28;20037;-79
2021/05/06 11:20:25;;;;;;;7.05;3.38;;;8.10;99.90;;;;;;5043012;28;20372;-79
2021/05/06 11:22:55;;;;;;;9.85;3.10;;;9.70;99.90;;;;;;5019227;28;20112;-77
2021/05/06 11:27:58;;;;;;;8.90;2.97;;;10.90;99.90;;;;;;5044316;28;20037;-77
2021/05/06 11:30:45;;;;;;;6.40;2.53;;;;;;;;;;5021304;28;20231;-83
2021/05/06 11:33:20;;;;;;;6.25;2.53;;;10.10;99.90;;;;;;5042734;28;20028;-77
2021/05/06 11:35:53;;;;;;;10.07;3.05;;;10.30;99.90;;;;;;5022871;28;20033;-75
2021/05/06 11:38:18;;;;;;;5.25;2.50;;;10.20;99.90;;;;;;5018713;28;20025;-79
2021/05/06 11:40:44;;;;;;;5.80;2.67;;;10.20;99.90;;;;;;5027769;28;21528;-77
2021/05/06 11:43:19;;;;;;;7.70;2.92;;;10.10;99.90;;;;;;5036575;28;20375;-78
2021/05/06 11:45:45;;;;;;;9.43;2.70;;;9.90;99.90;;;;;;5025424;28;20044;-78
2021/05/06 11:48:12;;;;;;;6.43;2.58;;;9.80;99.90;;;;;;5037970;28;20056;-77
2021/05/06 11:50:44;;;;;;;3.92;2.00;;;9.70;99.90;;;;;;5018089;28;20630;-77
2021/05/06 11:53:15;;;;;;;5.50;2.13;;;9.80;99.90;;;;;;5034619;28;20601;-76
2021/05/06 11:55:49;;;;;;;7.53;2.53;;;9.80;99.90;;;;;;5038383;28;20025;-81
2021/05/06 11:58:25;;;;;;;3.17;2.05;;;9.80;99.90;;;;;;5040068;28;20056;-78
2021/05/06 12:00:53;;;;;;;4.90;2.38;;;9.50;99.90;;;;;;5035772;28;20052;-75
2021/05/06 12:03:19;;;;;;;4.63;2.40;;;9.40;99.90;;;;;;5041667;28;20028;-79
2021/05/06 12:05:47;;;;;;;5.60;2.38;;;11.40;99.90;;;;;;5038026;28;20025;-79
2021/05/06 12:08:13;;;;;;;3.55;1.90;;;13.10;99.90;;;;;;5039001;28;20028;-76
2021/05/06 12:10:40;;;;;;;5.80;2.28;;;9.40;99.90;;;;;;5023168;28;20032;-79
2021/05/06 12:13:06;;;;;;;4.72;1.77;;;9.40;99.90;;;;;;5023190;28;20029;-82
2021/05/06 12:15:31;;;;;;;2.05;1.48;;;9.40;99.90;;;;;;5028066;28;20045;-80
2021/05/06 12:18:25;;;;;;;3.20;1.70;;;11.60;99.90;;;;;;5023150;28;20039;-76
2021/05/06 12:20:57;;;;;;;4.18;1.90;;;9.30;99.90;;;;;;5040200;28;20376;-79
2021/05/06 12:23:25;;;;;;;2.60;1.63;;;9.30;99.90;;;;;;5019803;28;20041;-78
2021/05/06 12:25:51;;;;;;;3.65;1.80;;;9.30;99.90;;;;;;5022691;28;20071;-80
2021/05/06 12:28:17;;;;;;;4.00;1.65;;;9.40;99.90;;;;;;5024224;28;20028;-77
2021/05/06 12:30:44;;;;;;;4.25;1.85;;;9.40;99.90;;;;;;5041271;28;20033;-76
2021/05/06 12:33:10;;;;;;;3.08;2.00;;;;;;;;;;5023274;28;20051;-78
2021/05/06 12:35:50;;;;;;;3.90;1.60;;;9.50;99.90;;;;;;5038114;28;20039;-77
2021/05/06 12:38:16;;;;;;;3.58;1.90;;;9.50;99.90;;;;;;5033303;28;20028;-79
2021/05/06 12:40:42;;;;;;;3.00;1.60;;;9.40;99.90;;;;;;5024933;28;20492;-82
2021/05/06 12:43:27;;;;;;;3.05;1.50;;;9.50;99.90;;;;;;5040376;28;20072;-78
2021/05/06 12:46:07;;;;;;;5.25;1.70;;;9.60;99.90;;;;;;5043726;28;20113;-80
2021/05/06 12:48:38;;;;;;;2.90;1.60;;;9.60;99.90;;;;;;5020164;28;21005;-79
2021/05/06 12:51:05;;;;;;;2.70;1.48;;;9.70;99.90;;;;;;5038681;28;20033;-79
2021/05/06 12:53:31;;;;;;;4.72;1.67;;;9.80;99.90;;;;;;5018690;28;20032;-79
2021/05/06 12:55:57;;;;;;;4.03;1.75;;;9.90;99.90;;;;;;5026933;28;20819;-78
2021/05/06 12:58:30;;;;;;;2.47;1.33;;;9.80;99.90;;;;;;5042787;28;20030;-77
2021/05/06 13:00:55;;;;;;;6.80;3.10;;;9.90;99.90;;;;;;5017321;28;20065;-77
2021/05/06 13:03:31;;;;;;;4.55;1.50;;;10.00;99.90;;;;;;5037482;28;20048;-79
2021/05/06 13:06:04;;;;;;;3.00;1.60;;;9.80;99.90;;;;;;5033943;28;20087;-78
2021/05/06 13:08:43;;;;;;;6.10;2.55;;;9.80;99.90;;;;;;5033332;28;20619;-77
2021/05/06 13:11:11;;;;;;;5.45;2.42;;;9.80;99.90;;;;;;5023460;28;20021;-79
2021/05/06 13:13:39;;;;;;;6.15;2.15;;;9.90;99.90;;;;;;5018453;28;20032;-84
2021/05/06 13:16:07;;;;;;;5.38;1.80;;;9.80;99.90;;;;;;5038995;28;20441;-78
2021/05/06 13:18:33;;;;;;;4.88;2.15;;;9.80;99.90;;;;;;5019951;28;20051;-78
2021/05/06 13:20:59;;;;;;;2.53;1.60;;;9.70;99.90;;;;;;5040085;28;20395;-81
2021/05/06 13:23:30;;;;;;;4.35;1.92;;;9.70;99.90;;;;;;5043036;28;20029;-78
2021/05/06 13:25:57;;;;;;;3.72;1.88;;;9.60;99.90;;;;;;5041178;28;20025;-79
2021/05/06 13:28:31;;;;;;;3.38;1.50;;;9.60;99.90;;;;;;5021130;28;20467;-78
2021/05/06 13:31:21;;;;;;;4.13;1.80;;;12.00;99.90;;;;;;5022305;28;20025;-77
2021/05/06 13:33:49;;;;;;;;;;;9.50;99.90;;;;;;5025599;28;20044;-81
2021/05/06 13:36:17;;;;;;;4.25;1.77;;;9.50;99.90;;;;;;5040372;28;19909;-77
2021/05/06 13:38:47;;;;;;;3.63;1.60;;;9.40;99.90;;;;;;5020414;28;20097;-78
2021/05/06 13:41:14;;;;;;;3.00;1.70;;;9.40;99.90;;;;;;5018894;28;20017;-78
2021/05/06 13:43:40;;;;;;;4.43;1.70;;;9.40;99.90;;;;;;5042718;28;20021;-79
2021/05/06 13:46:11;;;;;;;3.72;1.77;;;9.30;99.90;;;;;;5037767;28;20553;-79
2021/05/06 13:48:37;;;;;;;5.32;1.77;;;9.40;99.90;;;;;;5026200;28;20463;-79
2021/05/06 13:51:05;;;;;;;3.10;1.90;;;9.40;99.90;;;;;;5032472;28;20468;-80
2021/05/06 13:53:30;;;;;;;6.38;2.05;;;11.50;99.90;;;;;;5037333;28;20032;-78
2021/05/06 13:55:56;;;;;;;4.55;2.00;;;;;;;;;;5037296;28;20028;-80
2021/05/06 13:58:22;;;;;;;5.82;1.98;;;9.80;99.90;;;;;;5028832;28;20097;-80
2021/05/06 14:00:48;;;;;;;4.28;2.00;;;11.60;99.90;;;;;;5021178;28;20048;-79
2021/05/06 14:03:14;;;;;;;6.35;2.40;;;10.00;99.90;;;;;;5020471;28;20032;-78
2021/05/06 14:05:39;;;;;;;4.07;2.30;;;9.70;99.90;;;;;;5017544;28;20047;-78
2021/05/06 14:08:05;;;;;;;4.72;2.30;;;;;;;;;;5037360;28;20030;-79
2021/05/06 14:10:31;;;;;;;4.80;2.03;;;9.40;99.90;;;;;;5023466;28;20107;-79
2021/05/06 14:12:57;;;;;;;3.63;2.17;;;9.40;99.90;;;;;;5018032;28;20760;-81
2021/05/06 14:15:23;;;;;;;4.03;1.80;;;9.30;99.90;;;;;;5032865;28;20079;-79
2021/05/06 14:17:48;;;;;;;3.58;1.90;;;9.30;99.90;;;;;;5017176;28;20550;-78
2021/05/06 14:20:14;;;;;;;4.70;2.80;;;9.30;99.90;;;;;;5034286;28;20068;-78
2021/05/06 14:22:39;;;;;;;3.53;1.90;;;9.10;99.90;;;;;;5019810;28;20043;-77
2021/05/06 14:25:05;;;;;;;6.22;2.78;;;9.10;99.90;;;;;;5020247;28;20025;-77
2021/05/06 14:27:34;;;;;;;4.65;2.00;;;9.20;99.90;;;;;;5032813;28;20024;-77
2021/05/06 14:30:00;;;;;;;3.97;1.92;;;10.90;99.90;;;;;;5033815;28;20543;-80
2021/05/06 14:32:26;;;;;;;7.00;2.50;;;;;;;;;;5024882;28;20038;-81
2021/05/06 14:34:54;;;;;;;7.88;3.50;;;9.10;99.90;;;;;;5009891;28;20041;-78
2021/05/06 14:37:24;;;;;;;4.75;2.40;;;9.10;99.90;;;;;;5018317;28;20037;-78
2021/05/06 14:39:50;;;;;;;4.28;2.00;;;9.10;99.90;;;;;;5035000;28;20442;-78
2021/05/06 14:42:15;;;;;;;4.95;2.25;;;9.00;99.90;;;;;;5029593;28;20386;-80
2021/05/06 14:44:41;;;;;;;5.43;2.63;;;;;;;;;;5035659;28;20075;-78
2021/05/06 14:47:07;;;;;;;4.88;2.50;;;;;;;;;;5016658;28;20070;-78
2021/05/06 14:49:33;;;;;;;6.32;2.13;;;;;;;;;;5018299;28;20044;-77
2021/05/06 14:51:59;;;;;;;5.88;2.22;;;9.00;99.90;;;;;;5031793;28;20499;-79
2021/05/06 14:54:24;;;;;;;5.43;2.50;;;8.90;99.90;;;;;;5036303;28;20036;-78
2021/05/06 14:56:50;;;;;;;3.70;2.25;;;8.90;99.90;;;;;;5037821;28;20049;-78
2021/05/06 14:59:15;;;;;;;5.75;2.60;;;8.90;99.90;;;;;;5017836;28;20048;-78
2021/05/06 15:01:41;;;;;;;5.38;2.65;;;9.00;99.90;;;;;;5036516;28;20036;-79
2021/05/06 15:04:07;;;;;;;9.05;2.88;;;9.00;99.90;;;;;;5040271;28;20028;-77
2021/05/06 15:06:32;;;;;;;6.13;3.22;;;;;;;;;;5018417;28;20040;-79
2021/05/06 15:09:04;;;;;;;6.40;2.47;;;;;;;;;;5032846;28;20061;-79
2021/05/06 15:11:30;;;;;;;4.55;2.60;;;9.00;99.90;;;;;;5032988;28;20020;-78
2021/05/06 15:13:55;;;;;;;4.75;2.33;;;9.10;99.90;;;;;;5020736;28;20632;-77
2021/05/06 15:16:23;;;;;;;11.80;3.10;;;7.70;99.90;;;;;;5031735;28;20395;-79
2021/05/06 15:18:49;;;;;;;7.70;2.60;;;9.00;99.90;;;;;;5025054;28;20487;-77
2021/05/06 15:21:14;;;;;;;5.32;2.50;;;9.00;99.90;;;;;;5014116;28;20088;-76
2021/05/06 15:23:40;;;;;;;3.90;2.03;;;9.00;99.90;;;;;;5029837;28;20022;-78
2021/05/06 15:26:06;;;;;;;3.00;1.92;;;8.90;99.90;;;;;;5028921;28;20032;-77
2021/05/06 15:28:32;;;;;;;4.20;2.00;;;;;;;;;;5032642;28;20562;-77
2021/05/06 15:30:58;;;;;;;5.25;3.10;;;9.20;99.90;;;;;;5013344;28;20394;-78
2021/05/06 15:33:24;;;;;;;3.22;1.92;;;9.50;99.90;;;;;;5023087;28;20036;-76
2021/05/06 15:35:50;;;;;;;3.88;2.03;;;9.50;99.90;;;;;;5009985;28;20029;-78
2021/05/06 15:38:18;;;;;;;4.85;1.98;;;9.50;99.90;;;;;;5016681;28;20025;-78
2021/05/06 15:40:44;;;;;;;3.08;1.90;;;9.40;99.90;;;;;;5030772;28;20098;-77
2021/05/06 15:43:11;;;;;;;3.50;2.20;;;;;;;;;;5014800;28;20030;-80
2021/05/06 15:45:41;;;;;;;5.18;2.38;;;9.40;99.90;;;;;;5015126;28;20163;-77
2021/05/06 15:48:12;;;;;;;7.35;4.70;;;9.40;99.90;;;;;;5023886;28;20570;-78
2021/05/06 15:50:38;;;;;;;7.15;3.47;;;9.40;99.90;;;;;;5017434;28;20040;-77
2021/05/06 15:53:04;;;;;;;4.30;2.30;;;9.40;99.90;;;;;;5016068;28;20148;-79
2021/05/06 15:55:33;;;;;;;22.15;9.60;;;;;;;;;;5023171;28;20029;-79
2021/05/06 15:58:02;;;;;;;8.63;3.90;;;9.40;99.90;;;;;;5031803;28;20021;-79
2021/05/06 16:00:27;;;;;;;6.45;3.50;;;9.40;99.90;;;;;;5015923;28;21376;-75
2021/05/06 16:03:06;;;;;;;9.23;4.18;;;;;;;;;;5007458;28;20033;-77
2021/05/06 16:05:32;;;;;;;8.27;4.72;;;9.40;99.90;;;;;;5020050;28;20136;-76
2021/05/06 16:07:58;;;;;;;5.75;2.88;;;9.50;99.90;;;;;;5009583;28;20039;-79
2021/05/06 16:10:25;;;;;;;10.00;4.93;;;9.50;99.90;;;;;;5000420;28;20036;-78
2021/05/06 16:12:52;;;;;;;3.35;2.33;;;9.60;99.90;;;;;;5010831;28;20033;-80
2021/05/06 16:15:18;;;;;;;5.07;2.97;;;9.50;99.90;;;;;;5038363;28;20404;-77
2021/05/06 16:17:44;;;;;;;5.75;3.50;;;9.50;99.90;;;;;;5035413;28;21135;-79
2021/05/06 16:20:20;;;;;;;8.60;3.60;;;9.50;99.90;;;;;;5037263;28;20024;-80
2021/05/06 16:22:47;;;;;;;5.88;3.20;;;9.50;99.90;;;;;;5045523;28;20025;-79
2021/05/06 16:25:15;;;;;;;4.35;2.92;;;9.60;99.90;;;;;;5032443;28;21571;-76
2021/05/06 16:27:42;;;;;;;5.65;2.95;;;9.60;99.90;;;;;;5023111;28;20031;-79
2021/05/06 16:30:12;;;;;;;8.88;3.40;;;9.60;99.90;;;;;;5030521;28;20028;-78
2021/05/06 16:32:39;;;;;;;7.47;2.60;;;9.60;99.90;;;;;;5028804;28;20028;-76
2021/05/06 16:35:09;;;;;;;4.78;3.00;;;9.60;99.90;;;;;;5037426;28;20102;-79
2021/05/06 16:44:53;;;;;;;4.90;3.15;;;;;;;;;;5053295;28;20036;-79
2021/05/06 16:47:19;;;;;;;4.38;3.20;;;9.60;99.90;;;;;;5053517;28;20048;-82